createdAt,value
2022-09-07T00:01:56.779Z,99.20
2022-09-07T00:04:58.418Z,99.32
2022-09-07T00:08:00.872Z,99.38
2022-09-07T00:11:05.619Z,99.59
2022-09-07T00:14:07.793Z,99.30
2022-09-07T00:17:09.390Z,99.56
2022-09-07T00:20:12.899Z,99.43
2022-09-07T00:23:14.522Z,99.32
2022-09-07T00:26:18.772Z,99.38
2022-09-07T00:29:20.491Z,99.20
2022-09-07T00:32:22.100Z,99.13
2022-09-07T00:35:23.785Z,99.14
2022-09-07T00:38:25.449Z,98.97
2022-09-07T00:41:27.092Z,99.29
2022-09-07T00:44:44.010Z,99.24
2022-09-07T00:48:03.899Z,99.49
2022-09-07T00:51:09.749Z,99.71
2022-09-07T00:54:21.570Z,99.93
2022-09-07T00:57:23.420Z,100.00
2022-09-07T01:00:25.690Z,100.00
2022-09-07T01:03:31.113Z,100.00
2022-09-07T01:06:36.218Z,100.00
2022-09-07T01:09:39.645Z,100.00
2022-09-07T01:12:41.284Z,100.00
2022-09-07T01:16:10.082Z,100.00
2022-09-07T01:19:26.648Z,100.00
2022-09-07T01:23:05.753Z,100.00
2022-09-07T01:26:19.624Z,100.00
2022-09-07T01:29:37.709Z,99.85
2022-09-07T01:33:06.391Z,99.88
2022-09-07T01:36:31.835Z,100.00
2022-09-07T01:39:49.749Z,99.89
2022-09-07T01:42:57.309Z,99.74
2022-09-07T01:46:03.245Z,99.95
2022-09-07T01:49:11.918Z,100.00
2022-09-07T01:52:42.425Z,100.00
2022-09-07T01:55:55.270Z,100.00
2022-09-07T01:59:04.443Z,100.00
2022-09-07T02:02:11.720Z,100.00
2022-09-07T02:05:30.209Z,100.00
2022-09-07T02:08:42.100Z,100.00
2022-09-07T02:11:47.482Z,100.00
2022-09-07T02:14:54.332Z,100.00
2022-09-07T02:18:01.199Z,100.00
2022-09-07T02:21:05.950Z,100.00
2022-09-07T02:24:17.302Z,100.00
2022-09-07T02:27:25.432Z,100.00
2022-09-07T02:30:27.188Z,100.00
2022-09-07T02:33:29.668Z,100.00
2022-09-07T02:36:37.171Z,100.00
2022-09-07T02:39:39.030Z,100.00
2022-09-07T02:42:41.978Z,100.00
2022-09-07T02:46:02.566Z,100.00
2022-09-07T02:49:22.934Z,100.00
2022-09-07T02:52:51.920Z,100.00
2022-09-07T02:55:53.489Z,100.00
2022-09-07T02:59:11.990Z,100.00
2022-09-07T03:02:28.989Z,100.00
2022-09-07T03:05:43.006Z,100.00
2022-09-07T03:08:50.731Z,100.00
2022-09-07T03:11:52.783Z,100.00
2022-09-07T03:14:54.465Z,100.00
2022-09-07T03:17:56.146Z,100.00
2022-09-07T03:20:57.880Z,100.00
2022-09-07T03:23:59.532Z,100.00
2022-09-07T03:27:01.590Z,100.00
2022-09-07T03:30:06.319Z,100.00
2022-09-07T03:33:07.964Z,100.00
2022-09-07T03:36:09.780Z,100.00
2022-09-07T03:39:13.954Z,100.00
2022-09-07T03:42:15.602Z,100.00
2022-09-07T03:45:18.099Z,100.00
2022-09-07T03:48:19.778Z,100.00
2022-09-07T03:51:21.383Z,100.00
2022-09-07T03:54:23.095Z,100.00
2022-09-07T03:57:24.780Z,100.00
2022-09-07T04:00:26.424Z,100.00
2022-09-07T04:03:28.047Z,100.00
2022-09-07T04:06:30.066Z,100.00
2022-09-07T04:09:31.878Z,100.00
2022-09-07T04:12:33.530Z,100.00
2022-09-07T04:15:35.449Z,100.00
2022-09-07T04:18:37.478Z,100.00
2022-09-07T04:21:39.232Z,100.00
2022-09-07T04:24:40.862Z,100.00
2022-09-07T04:27:42.576Z,100.00
2022-09-07T04:30:44.794Z,100.00
2022-09-07T04:33:48.341Z,100.00
2022-09-07T04:36:50.402Z,100.00
2022-09-07T04:39:52.128Z,100.00
2022-09-07T04:42:53.782Z,100.00
2022-09-07T04:45:55.685Z,100.00
2022-09-07T04:48:59.688Z,100.00
2022-09-07T04:52:01.440Z,99.97
2022-09-07T04:55:04.071Z,100.00
2022-09-07T04:58:05.699Z,100.00
2022-09-07T05:01:08.130Z,100.00
2022-09-07T05:04:09.852Z,99.88
2022-09-07T05:07:11.518Z,99.30
2022-09-07T05:10:13.261Z,99.01
2022-09-07T05:13:14.916Z,99.46
2022-09-07T05:16:19.462Z,99.84
2022-09-07T05:19:21.122Z,100.00
2022-09-07T05:22:23.179Z,100.00
2022-09-07T05:25:26.552Z,100.00
2022-09-07T05:28:31.235Z,100.00
2022-09-07T05:31:33.396Z,100.00
2022-09-07T05:34:35.410Z,100.00
2022-09-07T05:37:37.036Z,100.00
2022-09-07T05:40:40.881Z,100.00
2022-09-07T05:47:05.524Z,100.00
2022-09-07T05:50:09.004Z,100.00
2022-09-07T05:53:10.639Z,100.00
2022-09-07T05:56:12.851Z,100.00
2022-09-07T05:59:14.638Z,100.00
2022-09-07T06:02:16.653Z,100.00
2022-09-07T06:05:18.397Z,100.00
2022-09-07T06:08:20.043Z,100.00
2022-09-07T06:11:23.625Z,100.00
2022-09-07T06:14:25.297Z,100.00
2022-09-07T06:17:29.161Z,100.00
2022-09-07T06:20:31.165Z,100.00
2022-09-07T06:23:34.092Z,100.00
2022-09-07T06:26:35.689Z,100.00
2022-09-07T06:29:37.326Z,100.00
2022-09-07T06:35:43.607Z,100.00
2022-09-07T06:38:46.911Z,100.00
2022-09-07T06:42:03.874Z,100.00
2022-09-07T06:45:06.878Z,100.00
2022-09-07T06:48:08.493Z,100.00
2022-09-07T06:51:19.143Z,100.00
2022-09-07T06:57:42.387Z,100.00
2022-09-07T07:00:44.332Z,100.00
2022-09-07T07:03:46.560Z,100.00
2022-09-07T07:06:48.278Z,100.00
2022-09-07T07:09:50.086Z,100.00
2022-09-07T07:12:53.164Z,100.00
2022-09-07T07:16:05.377Z,100.00
2022-09-07T07:19:07.160Z,100.00
2022-09-07T07:22:45.549Z,100.00
2022-09-07T07:25:31.041Z,100.00
2022-09-07T07:31:55.185Z,100.00
2022-09-07T07:34:57.057Z,100.00
2022-09-07T07:44:44.494Z,100.00
2022-09-07T07:47:51.211Z,100.00
2022-09-07T07:51:09.889Z,100.00
2022-09-07T07:54:13.800Z,100.00
2022-09-07T07:57:16.931Z,100.00
2022-09-07T08:00:37.158Z,100.00
2022-09-07T08:03:43.721Z,100.00
2022-09-07T08:06:45.361Z,100.00
2022-09-07T08:09:48.096Z,100.00
2022-09-07T08:12:53.325Z,100.00
2022-09-07T08:15:59.413Z,100.00
2022-09-07T08:19:01.963Z,100.00
2022-09-07T08:22:03.998Z,100.00
2022-09-07T08:25:07.176Z,100.00
2022-09-07T08:28:08.770Z,100.00
2022-09-07T08:31:13.768Z,100.00
2022-09-07T08:34:15.515Z,100.00
2022-09-07T08:37:17.128Z,100.00
2022-09-07T08:40:19.502Z,100.00
2022-09-07T08:43:40.093Z,100.00
2022-09-07T08:47:04.512Z,100.00
2022-09-07T08:50:18.539Z,100.00
2022-09-07T08:53:22.043Z,100.00
2022-09-07T08:56:33.669Z,100.00
2022-09-07T08:59:46.645Z,100.00
2022-09-07T09:03:28.694Z,96.57
2022-09-07T09:06:20.229Z,96.29
2022-09-07T09:09:34.229Z,95.22
2022-09-07T09:13:06.655Z,94.13
2022-09-07T09:16:54.787Z,93.29
2022-09-07T09:20:17.288Z,91.01
2022-09-07T09:23:20.522Z,89.82
2022-09-07T09:26:28.274Z,90.99
2022-09-07T09:29:29.851Z,88.50
2022-09-07T09:32:33.311Z,89.38
2022-09-07T09:35:36.279Z,89.90
2022-09-07T09:38:40.365Z,89.71
2022-09-07T09:41:42.496Z,88.55
2022-09-07T09:44:45.473Z,88.49
2022-09-07T09:47:51.075Z,86.88
2022-09-07T09:54:42.867Z,82.65
2022-09-07T10:01:26.075Z,80.79
2022-09-07T10:04:35.120Z,80.77
2022-09-07T10:07:36.755Z,81.13
2022-09-07T10:10:38.383Z,82.14
2022-09-07T10:13:52.594Z,81.70
2022-09-07T10:16:55.743Z,81.15
2022-09-07T10:20:21.629Z,79.31
2022-09-07T10:23:24.244Z,79.55
2022-09-07T10:26:28.849Z,79.52
2022-09-07T10:29:36.054Z,79.84
2022-09-07T10:32:58.402Z,78.53
2022-09-07T10:36:10.896Z,77.47
2022-09-07T10:39:17.560Z,77.26
2022-09-07T10:42:32.902Z,77.15
2022-09-07T10:45:53.006Z,75.75
2022-09-07T10:49:09.633Z,75.76
2022-09-07T10:52:22.591Z,75.88
2022-09-07T10:55:38.071Z,74.62
2022-09-07T10:59:03.485Z,74.02
2022-09-07T11:02:39.288Z,73.40
2022-09-07T11:06:20.305Z,72.54
2022-09-07T11:10:12.785Z,72.34
2022-09-07T11:13:19.538Z,72.25
2022-09-07T11:19:56.645Z,70.35
2022-09-07T11:23:15.645Z,71.76
2022-09-07T11:26:37.335Z,69.15
2022-09-07T11:29:54.864Z,67.38
2022-09-07T11:33:15.208Z,67.28
2022-09-07T11:36:20.920Z,67.03
2022-09-07T11:39:29.438Z,67.53
2022-09-07T11:42:52.936Z,65.66
2022-09-07T11:46:00.251Z,66.67
2022-09-07T11:49:05.296Z,66.40
2022-09-07T11:52:17.149Z,65.09
2022-09-07T11:55:27.498Z,65.17
2022-09-07T11:58:47.308Z,64.37
2022-09-07T12:02:08.063Z,65.23
2022-09-07T12:05:30.876Z,65.45
2022-09-07T12:08:32.521Z,65.08
2022-09-07T12:12:03.212Z,65.45
2022-09-07T12:15:13.943Z,64.36
2022-09-07T12:18:25.330Z,64.71
2022-09-07T12:21:34.744Z,65.05
2022-09-07T12:24:43.553Z,63.82
2022-09-07T12:27:45.544Z,63.36
2022-09-07T12:31:06.042Z,65.10
2022-09-07T12:34:29.457Z,64.63
2022-09-07T12:37:33.941Z,64.91
2022-09-07T12:40:36.133Z,64.42
2022-09-07T12:43:43.713Z,62.74
2022-09-07T12:46:48.384Z,62.80
2022-09-07T12:50:12.014Z,62.20
2022-09-07T12:53:13.770Z,61.67
2022-09-07T12:56:43.908Z,60.65
2022-09-07T13:00:00.718Z,61.20
2022-09-07T13:07:02.409Z,59.97
2022-09-07T13:10:33.479Z,59.85
2022-09-07T13:17:38.885Z,58.24
2022-09-07T13:20:41.620Z,58.97
2022-09-07T13:24:45.772Z,58.22
2022-09-07T13:27:41.427Z,58.34
2022-09-07T13:31:00.262Z,57.98
2022-09-07T13:34:33.766Z,57.47
2022-09-07T13:37:59.068Z,58.66
2022-09-07T13:41:14.665Z,58.67
2022-09-07T13:44:25.920Z,58.56
2022-09-07T13:47:41.625Z,58.57
2022-09-07T13:50:52.369Z,57.98
2022-09-07T13:54:05.321Z,57.02
2022-09-07T13:57:22.114Z,55.98
2022-09-07T14:00:24.264Z,56.76
2022-09-07T14:03:28.147Z,56.04
2022-09-07T14:06:32.909Z,55.94
2022-09-07T14:09:34.987Z,55.07
2022-09-07T14:12:52.473Z,54.58
2022-09-07T14:15:54.110Z,54.89
2022-09-07T14:18:55.773Z,55.48
2022-09-07T14:22:12.540Z,54.14
2022-09-07T14:25:22.189Z,53.56
2022-09-07T14:28:32.372Z,54.23
2022-09-07T14:31:34.808Z,53.44
2022-09-07T14:34:38.180Z,53.65
2022-09-07T14:37:40.309Z,52.48
2022-09-07T14:40:42.187Z,52.03
2022-09-07T14:43:58.346Z,49.77
2022-09-07T14:47:05.996Z,50.22
2022-09-07T14:50:18.342Z,49.17
2022-09-07T14:53:36.186Z,50.16
2022-09-07T14:56:40.987Z,49.17
2022-09-07T14:59:45.104Z,48.99
2022-09-07T15:02:47.398Z,48.47
2022-09-07T15:05:49.170Z,47.09
2022-09-07T15:08:50.808Z,46.32
2022-09-07T15:12:03.301Z,45.88
2022-09-07T15:15:33.670Z,45.30
2022-09-07T15:18:55.639Z,43.22
2022-09-07T15:21:57.555Z,43.72
2022-09-07T15:24:59.191Z,42.61
2022-09-07T15:28:01.010Z,41.06
2022-09-07T15:34:24.643Z,43.39
2022-09-07T15:41:20.901Z,45.46
2022-09-07T15:44:21.524Z,46.68
2022-09-07T15:50:48.830Z,48.76
2022-09-07T15:54:12.647Z,48.59
2022-09-07T16:00:37.697Z,51.50
2022-09-07T16:03:39.734Z,52.26
2022-09-07T16:06:42.836Z,52.43
2022-09-07T16:09:44.400Z,52.38
2022-09-07T16:13:08.715Z,52.44
2022-09-07T16:16:08.310Z,52.20
2022-09-07T16:19:13.825Z,52.35
2022-09-07T16:23:13.243Z,53.67
2022-09-07T16:25:38.254Z,54.24
2022-09-07T16:28:42.232Z,54.48
2022-09-07T16:35:05.908Z,54.79
2022-09-07T16:41:31.750Z,56.79
2022-09-07T16:44:35.119Z,58.11
2022-09-07T16:47:39.902Z,58.75
2022-09-07T16:50:51.120Z,59.42
2022-09-07T16:53:54.828Z,59.73
2022-09-07T16:56:56.531Z,60.96
2022-09-07T16:59:58.389Z,62.01
2022-09-07T17:03:00.022Z,63.33
2022-09-07T17:06:03.502Z,63.72
2022-09-07T17:09:05.462Z,64.93
2022-09-07T17:12:08.017Z,65.83
2022-09-07T17:15:10.206Z,66.46
2022-09-07T17:18:11.791Z,67.21
2022-09-07T17:21:14.618Z,67.95
2022-09-07T17:24:16.489Z,68.78
2022-09-07T17:27:18.082Z,69.25
2022-09-07T17:30:20.829Z,69.67
2022-09-07T17:33:22.548Z,69.75
2022-09-07T17:36:25.922Z,69.82
2022-09-07T17:39:30.042Z,70.03
2022-09-07T17:45:53.387Z,70.86
2022-09-07T17:48:59.083Z,71.62
2022-09-07T17:52:01.633Z,72.07
2022-09-07T17:55:03.928Z,72.72
2022-09-07T17:58:07.857Z,72.96
2022-09-07T18:01:15.548Z,73.28
2022-09-07T18:04:17.562Z,73.80
2022-09-07T18:07:19.172Z,74.87
2022-09-07T18:10:20.772Z,75.67
2022-09-07T18:13:33.552Z,76.34
2022-09-07T18:16:37.519Z,76.93
2022-09-07T18:19:39.158Z,77.49
2022-09-07T18:22:40.732Z,77.72
2022-09-07T18:25:42.393Z,78.22
2022-09-07T18:32:09.466Z,78.86
2022-09-07T18:35:11.390Z,79.35
2022-09-07T18:38:13.646Z,79.71
2022-09-07T18:41:16.252Z,79.50
2022-09-07T18:47:40.094Z,80.64
2022-09-07T18:50:41.665Z,80.61
2022-09-07T18:53:43.565Z,81.19
2022-09-07T18:56:45.167Z,82.04
2022-09-07T18:59:46.863Z,82.46
2022-09-07T19:02:51.505Z,83.14
2022-09-07T19:06:05.089Z,83.78
2022-09-07T19:09:06.769Z,83.52
2022-09-07T19:12:10.026Z,84.27
2022-09-07T19:15:11.675Z,84.67
2022-09-07T19:18:13.625Z,84.99
2022-09-07T19:21:19.461Z,85.57
2022-09-07T19:24:21.122Z,85.63
2022-09-07T19:27:22.713Z,85.83
2022-09-07T19:30:26.680Z,86.70
2022-09-07T19:33:28.357Z,86.75
2022-09-07T19:36:32.659Z,86.51
2022-09-07T19:39:34.817Z,86.96
2022-09-07T19:42:36.509Z,87.33
2022-09-07T19:45:39.963Z,87.43
2022-09-07T19:48:41.802Z,87.65
2022-09-07T19:51:43.558Z,88.40
2022-09-07T19:54:45.683Z,88.64
2022-09-07T19:57:47.738Z,89.06
2022-09-07T20:00:49.641Z,89.07
2022-09-07T20:04:00.926Z,89.65
2022-09-07T20:07:03.020Z,89.36
2022-09-07T20:10:05.312Z,89.26
2022-09-07T20:13:06.917Z,89.31
2022-09-07T20:16:12.382Z,89.56
2022-09-07T20:19:16.842Z,89.42
2022-09-07T20:22:19.926Z,89.21
2022-09-07T20:25:23.955Z,89.29
2022-09-07T20:28:26.239Z,89.38
2022-09-07T20:31:28.057Z,89.17
2022-09-07T20:34:29.699Z,88.50
2022-09-07T20:37:31.278Z,88.68
2022-09-07T20:40:33.512Z,87.65
2022-09-07T20:43:35.203Z,86.36
2022-09-07T20:46:37.016Z,86.68
2022-09-07T20:49:39.632Z,86.67
2022-09-07T20:52:41.192Z,86.21
2022-09-07T20:55:43.006Z,86.61
2022-09-07T20:58:46.045Z,85.90
2022-09-07T21:01:47.800Z,86.31
2022-09-07T21:04:49.417Z,86.19
2022-09-07T21:07:51.018Z,86.48
2022-09-07T21:10:52.789Z,86.99
2022-09-07T21:14:08.393Z,87.27
2022-09-07T21:17:10.241Z,87.31
2022-09-07T21:20:11.952Z,87.17
2022-09-07T21:23:13.664Z,87.33
2022-09-07T21:26:20.407Z,86.55
2022-09-07T21:29:24.363Z,85.37
2022-09-07T21:32:26.282Z,85.19
2022-09-07T21:35:30.671Z,84.14
2022-09-07T21:38:33.876Z,83.41
2022-09-07T21:41:38.634Z,82.74
2022-09-07T21:44:40.361Z,83.22
2022-09-07T21:47:42.216Z,83.24
2022-09-07T21:50:45.068Z,83.21
2022-09-07T21:53:52.140Z,79.50
2022-09-07T21:56:53.754Z,78.83
2022-09-07T21:59:55.462Z,78.40
2022-09-07T22:02:57.120Z,81.05
2022-09-07T22:06:02.166Z,82.69
2022-09-07T22:09:05.069Z,85.14
2022-09-07T22:12:06.930Z,87.14
2022-09-07T22:15:08.879Z,88.89
2022-09-07T22:18:13.446Z,91.50
2022-09-07T22:21:18.827Z,91.88
2022-09-07T22:24:20.455Z,92.81
2022-09-07T22:27:22.157Z,92.99
2022-09-07T22:30:24.281Z,94.50
2022-09-07T22:33:26.986Z,96.34
2022-09-07T22:36:32.387Z,97.60
2022-09-07T22:39:34.081Z,98.75
2022-09-07T22:42:35.756Z,98.77
2022-09-07T22:45:37.359Z,98.50
2022-09-07T22:48:40.544Z,97.45
2022-09-07T22:51:42.951Z,96.17
2022-09-07T22:54:45.763Z,96.48
2022-09-07T22:57:47.438Z,97.36
2022-09-07T23:00:50.616Z,97.46
2022-09-07T23:03:53.500Z,98.24
2022-09-07T23:06:55.219Z,99.18
2022-09-07T23:09:56.822Z,99.60
2022-09-07T23:12:58.432Z,100.00
2022-09-07T23:16:04.658Z,100.00
2022-09-07T23:19:06.960Z,100.00
2022-09-07T23:22:08.599Z,100.00
2022-09-07T23:25:10.256Z,100.00
2022-09-07T23:28:12.432Z,100.00
2022-09-07T23:31:14.198Z,100.00
2022-09-07T23:34:16.371Z,100.00
2022-09-07T23:37:17.994Z,99.79
2022-09-07T23:40:20.362Z,100.00
2022-09-07T23:43:22.768Z,100.00
2022-09-07T23:46:25.152Z,100.00
2022-09-07T23:49:26.784Z,100.00
2022-09-07T23:52:28.441Z,100.00
2022-09-07T23:55:30.077Z,100.00
2022-09-07T23:58:31.820Z,100.00
